Time;durP1;ratioP1;P1;durP2;ratioP2;P2;SDS_P1;SDS_P2;PMS_P1;PMS_P2;Temp;Humidity;BMP_temperature;BMP_pressure;BME280_temperature;BME280_humidity;BME280_pressure;Samples;Min_cycle;Max_cycle;Signal;HPM_P1;HPM_P2
2022/11/07 00:00:39;;;;;;;2.00;1.00;;;11.60;55.10;;;;;;5092359;28;20573;-65
2022/11/07 00:03:06;;;;;;;1.70;0.70;;;11.70;55.50;;;;;;5091986;28;20505;-65
2022/11/07 00:05:33;;;;;;;2.10;0.87;;;11.70;55.00;;;;;;5092474;28;20192;-65
2022/11/07 00:08:01;;;;;;;2.03;0.93;;;11.80;55.40;;;;;;5091579;28;20962;-66
2022/11/07 00:10:28;;;;;;;3.37;1.07;;;11.90;55.70;;;;;;5092344;28;20442;-66
2022/11/07 00:12:56;;;;;;;2.30;1.10;;;11.80;55.60;;;;;;5092102;28;20445;-65
2022/11/07 00:15:24;;;;;;;2.28;0.98;;;11.90;55.00;;;;;;5092798;28;20577;-65
2022/11/07 00:17:51;;;;;;;1.90;0.90;;;11.90;54.90;;;;;;5095173;28;20181;-65
2022/11/07 00:20:18;;;;;;;2.00;1.07;;;11.80;54.90;;;;;;5096300;28;20789;-65
2022/11/07 00:22:45;;;;;;;3.17;1.40;;;11.80;55.10;;;;;;5095716;28;20474;-66
2022/11/07 00:25:12;;;;;;;2.90;1.87;;;11.80;55.30;;;;;;5096131;28;20478;-66
2022/11/07 00:27:39;;;;;;;5.93;1.77;;;11.80;55.40;;;;;;5095029;28;20469;-65
2022/11/07 00:30:09;;;;;;;4.32;1.35;;;11.90;55.40;;;;;;5096331;28;20489;-65
2022/11/07 00:32:36;;;;;;;3.03;1.40;;;11.90;55.40;;;;;;5095607;28;20193;-65
2022/11/07 00:35:03;;;;;;;2.27;1.40;;;11.90;55.60;;;;;;5096114;28;20190;-65
2022/11/07 00:37:31;;;;;;;2.23;1.20;;;11.90;55.70;;;;;;5095623;28;20432;-65
2022/11/07 00:39:58;;;;;;;2.23;1.20;;;11.90;55.70;;;;;;5096218;28;20452;-66
2022/11/07 00:42:25;;;;;;;1.83;0.87;;;11.90;55.60;;;;;;5095605;28;20444;-66
2022/11/07 00:44:52;;;;;;;2.40;1.23;;;11.90;55.80;;;;;;5096047;28;20475;-65
2022/11/07 00:47:20;;;;;;;4.80;0.90;;;11.90;55.90;;;;;;5095669;28;20440;-65
2022/11/07 00:49:47;;;;;;;1.97;1.07;;;11.90;56.30;;;;;;5095563;28;20442;-65
2022/11/07 00:52:15;;;;;;;2.50;1.10;;;11.90;56.10;;;;;;5095252;28;21004;-65
2022/11/07 00:54:42;;;;;;;2.40;1.13;;;11.90;56.10;;;;;;5095639;28;20436;-66
2022/11/07 00:57:09;;;;;;;2.40;1.13;;;11.80;55.90;;;;;;5095188;28;20935;-65
2022/11/07 00:59:37;;;;;;;2.10;0.93;;;11.80;56.20;;;;;;5095686;28;20434;-66
2022/11/07 01:02:04;;;;;;;2.30;1.20;;;11.80;56.40;;;;;;5095262;28;20240;-66
2022/11/07 01:07:18;;;;;;;4.00;1.47;;;11.80;56.30;;;;;;5095040;28;20240;-65
2022/11/07 01:09:45;;;;;;;2.63;1.60;;;11.90;56.30;;;;;;5095427;28;20437;-65
2022/11/07 01:12:13;;;;;;;3.70;1.50;;;11.90;56.30;;;;;;5094669;28;20494;-66
2022/11/07 01:14:40;;;;;;;3.97;1.50;;;11.90;56.20;;;;;;5095395;28;20436;-66
2022/11/07 01:17:07;;;;;;;2.60;1.40;;;11.90;56.10;;;;;;5095386;28;20186;-65
2022/11/07 01:19:36;;;;;;;1.90;1.00;;;12.00;56.30;;;;;;5094699;28;20238;-66
2022/11/07 01:22:03;;;;;;;2.17;1.03;;;11.90;56.00;;;;;;5095386;28;20276;-65
2022/11/07 01:24:30;;;;;;;4.70;0.80;;;11.90;56.10;;;;;;5094883;28;20475;-66
2022/11/07 01:26:58;;;;;;;1.83;0.90;;;11.90;56.10;;;;;;5094930;28;20789;-66
2022/11/07 01:29:26;;;;;;;2.28;1.00;;;12.00;56.20;;;;;;5093434;28;20436;-65
2022/11/07 01:31:53;;;;;;;2.15;1.05;;;12.00;56.50;;;;;;5094927;28;20190;-66
2022/11/07 01:34:20;;;;;;;2.30;1.17;;;12.00;56.50;;;;;;5094807;28;20231;-65
2022/11/07 01:36:49;;;;;;;2.00;0.93;;;11.90;56.80;;;;;;5095057;28;20465;-65
2022/11/07 01:39:16;;;;;;;2.53;1.17;;;11.90;56.90;;;;;;5094776;28;20437;-65
2022/11/07 01:41:43;;;;;;;2.50;0.97;;;11.90;57.00;;;;;;5094576;28;20437;-65
2022/11/07 01:44:47;;;;;;;2.90;1.00;;;11.90;56.80;;;;;;5094183;28;20477;-65
2022/11/07 01:47:14;;;;;;;1.90;0.80;;;11.90;56.60;;;;;;5094570;28;20230;-65
2022/11/07 01:49:43;;;;;;;3.40;3.10;;;11.90;56.40;;;;;;5094380;28;20438;-65
2022/11/07 01:52:16;;;;;;;1.90;0.80;;;11.90;56.30;;;;;;5094623;28;20524;-66
2022/11/07 01:54:49;;;;;;;1.77;0.90;;;12.00;56.30;;;;;;5093837;28;20206;-65
2022/11/07 01:57:22;;;;;;;2.40;1.13;;;12.00;55.80;;;;;;5094360;28;20914;-65
2022/11/07 01:59:51;;;;;;;2.83;1.10;;;11.90;55.60;;;;;;5094285;28;20494;-65
2022/11/07 02:02:19;;;;;;;1.70;0.70;;;11.90;55.10;;;;;;5094404;28;20951;-65
2022/11/07 02:04:46;;;;;;;2.95;0.77;;;12.00;55.40;;;;;;5094045;28;20481;-65
2022/11/07 02:07:19;;;;;;;1.90;0.90;;;12.00;55.00;;;;;;5094439;28;20190;-65
2022/11/07 02:09:46;;;;;;;3.00;1.40;;;12.00;54.80;;;;;;5094013;28;20491;-65
2022/11/07 02:12:15;;;;;;;1.97;0.90;;;12.00;54.70;;;;;;5094104;28;20440;-65
2022/11/07 02:14:42;;;;;;;1.90;1.10;;;12.00;54.60;;;;;;5093447;28;20446;-65
2022/11/07 02:17:10;;;;;;;3.47;1.13;;;12.00;53.50;;;;;;5094067;28;20931;-65
2022/11/07 02:19:41;;;;;;;2.20;1.10;;;12.00;53.70;;;;;;5093673;28;20492;-65
2022/11/07 02:22:19;;;;;;;2.20;1.00;;;11.90;53.70;;;;;;5094086;28;20487;-66
2022/11/07 02:24:52;;;;;;;6.63;0.90;;;11.90;53.70;;;;;;5093525;28;20812;-65
2022/11/07 02:27:21;;;;;;;2.13;1.20;;;11.90;54.40;;;;;;5092923;28;20546;-65
2022/11/07 02:29:52;;;;;;;3.60;1.30;;;11.80;54.10;;;;;;5093465;28;20489;-65
2022/11/07 02:32:19;;;;;;;2.03;0.98;;;11.80;54.00;;;;;;5093317;28;20435;-65
2022/11/07 02:34:55;;;;;;;2.20;0.90;;;11.80;54.10;;;;;;5093503;28;20191;-65
2022/11/07 02:37:26;;;;;;;2.67;1.50;;;11.70;53.90;;;;;;5093813;28;20435;-65
2022/11/07 02:39:55;;;;;;;2.10;1.00;;;11.80;54.20;;;;;;5093072;28;20910;-67
2022/11/07 02:42:23;;;;;;;1.67;0.77;;;11.80;54.40;;;;;;5093615;28;20441;-65
2022/11/07 02:44:53;;;;;;;1.97;1.07;;;11.80;54.40;;;;;;5093175;28;20814;-65
2022/11/07 02:47:21;;;;;;;2.57;1.10;;;11.80;54.40;;;;;;5093000;28;20529;-66
2022/11/07 02:49:48;;;;;;;2.00;0.83;;;11.80;54.50;;;;;;5093602;28;20436;-65
2022/11/07 02:52:16;;;;;;;2.10;1.10;;;11.80;54.50;;;;;;5093192;28;20448;-65
2022/11/07 02:54:43;;;;;;;1.87;1.00;;;11.80;54.40;;;;;;5093088;28;20437;-66
2022/11/07 02:57:11;;;;;;;1.73;0.83;;;11.80;54.40;;;;;;5092940;28;20494;-65
2022/11/07 02:59:39;;;;;;;2.20;0.80;;;11.70;54.30;;;;;;5093291;28;20441;-65
2022/11/07 03:02:06;;;;;;;2.50;1.30;;;11.70;54.30;;;;;;5092594;28;20947;-65
2022/11/07 03:04:33;;;;;;;2.00;0.93;;;11.70;54.40;;;;;;5092870;28;20505;-65
2022/11/07 03:07:00;;;;;;;4.10;1.00;;;11.60;54.30;;;;;;5093075;28;20464;-65
2022/11/07 03:09:28;;;;;;;1.83;0.90;;;11.60;54.40;;;;;;5092903;28;20441;-66
2022/11/07 03:11:55;;;;;;;1.98;1.00;;;11.60;54.50;;;;;;5093148;28;20764;-65
2022/11/07 03:14:23;;;;;;;2.67;1.33;;;11.60;54.70;;;;;;5092694;28;20217;-66
2022/11/07 03:16:50;;;;;;;2.43;1.10;;;11.50;55.00;;;;;;5093127;28;20436;-65
2022/11/07 03:19:18;;;;;;;2.35;1.08;;;11.50;55.20;;;;;;5092597;28;20434;-66
2022/11/07 03:21:45;;;;;;;2.33;1.10;;;11.50;55.40;;;;;;5093154;28;20199;-65
2022/11/07 03:24:12;;;;;;;2.60;1.40;;;11.50;55.20;;;;;;5092337;28;20664;-65
2022/11/07 03:26:39;;;;;;;2.10;1.20;;;11.50;55.30;;;;;;5092708;28;20553;-65
2022/11/07 03:29:06;;;;;;;2.07;0.90;;;11.50;55.40;;;;;;5092290;28;20436;-65
2022/11/07 03:31:35;;;;;;;2.45;1.20;;;11.50;55.30;;;;;;5092913;28;20837;-65
2022/11/07 03:34:03;;;;;;;2.83;1.45;;;11.40;55.00;;;;;;5092203;28;20183;-66
2022/11/07 03:36:30;;;;;;;2.95;1.10;;;11.40;54.80;;;;;;5092635;28;20200;-65
2022/11/07 03:38:58;;;;;;;2.33;1.40;;;11.30;54.70;;;;;;5092319;28;20238;-65
2022/11/07 03:41:25;;;;;;;2.17;1.00;;;11.30;54.80;;;;;;5092769;28;20187;-65
2022/11/07 03:43:53;;;;;;;2.00;0.90;;;11.20;54.70;;;;;;5092142;28;20568;-66
2022/11/07 03:46:20;;;;;;;2.03;1.20;;;11.20;54.80;;;;;;5092567;28;20641;-65
2022/11/07 03:48:48;;;;;;;2.13;1.05;;;11.10;55.10;;;;;;5092588;28;20178;-65
2022/11/07 03:51:15;;;;;;;2.33;1.15;;;11.10;55.10;;;;;;5091339;28;20188;-66
2022/11/07 03:53:43;;;;;;;2.03;1.30;;;11.00;55.30;;;;;;5092818;28;20282;-65
2022/11/07 03:56:12;;;;;;;2.93;1.47;;;10.90;55.80;;;;;;5091937;28;20192;-67
2022/11/07 03:58:39;;;;;;;1.80;1.10;;;10.90;55.80;;;;;;5072245;28;20487;-66
2022/11/07 04:01:06;;;;;;;3.05;1.08;;;10.90;56.00;;;;;;5072420;28;20185;-67
2022/11/07 04:03:34;;;;;;;2.33;1.40;;;10.80;56.10;;;;;;5091729;28;20196;-66
2022/11/07 04:06:03;;;;;;;4.28;1.45;;;10.80;56.50;;;;;;5092143;28;20173;-67
2022/11/07 04:08:30;;;;;;;2.58;1.60;;;10.70;56.50;;;;;;5092427;28;20190;-66
2022/11/07 04:10:58;;;;;;;2.10;1.05;;;10.70;56.50;;;;;;5092166;28;20185;-66
2022/11/07 04:18:51;;;;;;;2.85;1.20;;;10.50;56.50;;;;;;5069127;28;20325;-66
2022/11/07 04:21:19;;;;;;;3.88;1.35;;;10.50;56.50;;;;;;5091756;28;20193;-67
2022/11/07 04:23:46;;;;;;;2.10;1.10;;;10.50;56.50;;;;;;5091652;28;20189;-66
2022/11/07 04:28:58;;;;;;;2.65;1.13;;;10.50;56.80;;;;;;5072335;28;20551;-67
2022/11/07 04:31:26;;;;;;;1.95;1.35;;;10.40;56.80;;;;;;5089186;28;20181;-66
2022/11/07 04:33:53;;;;;;;2.80;1.33;;;10.40;57.40;;;;;;5092225;28;20189;-66
2022/11/07 04:36:22;;;;;;;3.03;1.40;;;10.40;57.00;;;;;;5091296;28;20181;-66
2022/11/07 04:38:49;;;;;;;3.00;1.50;;;10.40;57.00;;;;;;5091292;28;20189;-67
2022/11/07 04:41:21;;;;;;;2.30;1.40;;;10.40;57.10;;;;;;5092008;28;20185;-66
2022/11/07 04:43:49;;;;;;;2.50;1.45;;;10.40;57.20;;;;;;5091329;28;20185;-66
2022/11/07 04:46:16;;;;;;;1.98;1.13;;;10.40;57.20;;;;;;5088768;28;20215;-66
2022/11/07 04:48:44;;;;;;;2.05;1.27;;;10.40;57.30;;;;;;5091658;28;20188;-66
2022/11/07 04:51:16;;;;;;;2.45;1.65;;;10.40;57.50;;;;;;5091976;28;20189;-66
2022/11/07 04:53:45;;;;;;;2.40;1.40;;;10.30;57.70;;;;;;5091054;28;20185;-66
2022/11/07 04:56:12;;;;;;;2.58;1.35;;;10.30;57.90;;;;;;5091826;28;20403;-66
2022/11/07 04:58:39;;;;;;;2.45;1.30;;;10.30;57.80;;;;;;5091619;28;20182;-66
2022/11/07 05:01:06;;;;;;;2.40;1.35;;;10.30;57.80;;;;;;5092200;28;20572;-67
2022/11/07 05:03:33;;;;;;;2.20;1.10;;;10.30;58.20;;;;;;5092480;28;20201;-66
2022/11/07 05:06:02;;;;;;;2.10;1.20;;;10.30;58.20;;;;;;5096009;28;20311;-66
2022/11/07 05:08:29;;;;;;;2.42;1.27;;;10.30;58.70;;;;;;5095496;28;20189;-66
2022/11/07 05:10:58;;;;;;;2.33;1.33;;;10.20;58.90;;;;;;5075496;28;20204;-66
2022/11/07 05:13:26;;;;;;;2.83;1.38;;;10.20;59.30;;;;;;5075648;28;20578;-67
2022/11/07 05:15:53;;;;;;;3.05;1.60;;;10.20;59.50;;;;;;5075915;28;20232;-66
2022/11/07 05:18:23;;;;;;;6.70;1.80;;;10.10;59.70;;;;;;5075393;28;20189;-66
2022/11/07 05:20:51;;;;;;;4.05;1.33;;;10.10;59.80;;;;;;5095579;28;20579;-66
2022/11/07 05:23:17;;;;;;;2.70;1.70;;;10.00;60.00;;;;;;5095539;28;20221;-67
2022/11/07 05:25:47;;;;;;;2.97;1.83;;;10.00;60.30;;;;;;5095023;28;20212;-66
2022/11/07 05:28:18;;;;;;;2.75;1.75;;;9.90;62.40;;;;;;5095343;28;21465;-66
2022/11/07 05:30:46;;;;;;;3.50;1.65;;;9.80;62.60;;;;;;5094849;28;20639;-67
2022/11/07 05:33:15;;;;;;;7.25;1.70;;;9.60;63.00;;;;;;5095334;28;20238;-66
2022/11/07 05:35:42;;;;;;;3.83;1.60;;;9.60;63.90;;;;;;5094875;28;20189;-67
2022/11/07 05:38:10;;;;;;;8.63;1.20;;;9.40;64.40;;;;;;5095182;28;20639;-66
2022/11/07 05:40:38;;;;;;;4.00;1.45;;;9.10;65.50;;;;;;5094688;28;20522;-67
2022/11/07 05:43:06;;;;;;;2.53;0.93;;;9.00;66.30;;;;;;5094893;28;20188;-66
2022/11/07 05:45:37;;;;;;;2.20;1.30;;;8.90;66.80;;;;;;5094126;28;20658;-66
2022/11/07 05:48:07;;;;;;;2.80;1.80;;;8.80;67.30;;;;;;5094869;28;20200;-66
2022/11/07 05:50:34;;;;;;;2.08;1.17;;;8.70;67.50;;;;;;5094508;28;20655;-66
2022/11/07 05:53:02;;;;;;;2.03;1.00;;;8.60;68.20;;;;;;5094299;28;20189;-66
2022/11/07 05:55:30;;;;;;;2.63;0.98;;;8.50;68.50;;;;;;5094684;28;20643;-66
2022/11/07 05:57:57;;;;;;;2.03;1.00;;;8.40;69.20;;;;;;5094390;28;20191;-66
2022/11/07 06:00:25;;;;;;;2.53;1.15;;;8.30;69.80;;;;;;5094239;28;20186;-66
2022/11/07 06:02:59;;;;;;;2.95;1.33;;;8.20;70.10;;;;;;5094377;28;20181;-66
2022/11/07 06:05:26;;;;;;;2.50;0.90;;;8.20;69.90;;;;;;5094421;28;20208;-65
2022/11/07 06:07:53;;;;;;;2.50;1.45;;;8.20;69.40;;;;;;5094667;28;20184;-66
2022/11/07 06:10:21;;;;;;;4.40;2.70;;;8.20;70.30;;;;;;5094585;28;20181;-66
2022/11/07 06:12:57;;;;;;;3.35;2.03;;;8.10;70.20;;;;;;5094233;28;20193;-66
2022/11/07 06:15:24;;;;;;;3.92;1.85;;;8.10;70.20;;;;;;5093572;28;20587;-66
2022/11/07 06:17:51;;;;;;;14.90;8.85;;;8.10;70.20;;;;;;5094382;28;20538;-66
2022/11/07 06:20:20;;;;;;;25.08;11.82;;;8.10;70.30;;;;;;5094160;28;20250;-66
2022/11/07 06:22:47;;;;;;;45.17;29.20;;;8.00;70.70;;;;;;5094091;28;20234;-66
2022/11/07 06:25:14;;;;;;;8.63;4.93;;;8.00;71.20;;;;;;5092997;28;20258;-66
2022/11/07 06:27:41;;;;;;;6.57;3.20;;;8.00;71.70;;;;;;5093765;28;20216;-66
2022/11/07 06:30:10;;;;;;;4.95;3.60;;;8.00;71.80;;;;;;5093789;28;20514;-66
2022/11/07 06:32:38;;;;;;;3.92;3.00;;;8.00;72.20;;;;;;5093988;28;20217;-66
2022/11/07 06:35:06;;;;;;;5.95;2.85;;;8.30;72.50;;;;;;5093724;28;20238;-66
2022/11/07 06:37:35;;;;;;;3.25;1.60;;;8.40;72.00;;;;;;5094002;28;20250;-66
2022/11/07 06:40:02;;;;;;;2.70;1.40;;;8.40;71.30;;;;;;5093874;28;20281;-67
2022/11/07 06:42:31;;;;;;;1.90;1.05;;;8.40;71.60;;;;;;5094175;28;20185;-67
2022/11/07 06:44:58;;;;;;;2.47;1.30;;;8.30;71.30;;;;;;5092748;28;20303;-66
2022/11/07 06:47:25;;;;;;;2.80;1.20;;;8.30;71.80;;;;;;5093713;28;20177;-66
2022/11/07 06:49:52;;;;;;;2.90;1.55;;;8.50;72.80;;;;;;5093279;28;20183;-66
2022/11/07 06:52:19;;;;;;;4.78;2.28;;;8.90;73.00;;;;;;5093722;28;20184;-68
2022/11/07 06:54:48;;;;;;;2.78;1.80;;;9.30;71.20;;;;;;5093210;28;20189;-66
2022/11/07 06:57:15;;;;;;;3.50;2.15;;;9.70;70.90;;;;;;5093627;28;20185;-66
2022/11/07 06:59:42;;;;;;;4.88;2.33;;;10.10;68.10;;;;;;5093290;28;20185;-66
2022/11/07 07:02:11;;;;;;;3.35;1.65;;;10.50;67.50;;;;;;5093419;28;20284;-66
2022/11/07 07:04:38;;;;;;;3.00;1.63;;;10.90;63.30;;;;;;5092730;28;20205;-66
2022/11/07 07:07:06;;;;;;;3.40;2.13;;;11.10;62.30;;;;;;5093471;28;20177;-67
2022/11/07 07:09:33;;;;;;;5.05;2.25;;;11.30;61.80;;;;;;5093471;28;20185;-66
2022/11/07 07:12:01;;;;;;;5.53;1.92;;;11.50;60.00;;;;;;5092707;28;20181;-67
2022/11/07 07:14:29;;;;;;;2.33;1.42;;;11.60;60.20;;;;;;5093550;28;20643;-66
2022/11/07 07:16:57;;;;;;;2.85;2.00;;;11.70;59.00;;;;;;5093103;28;20209;-66
2022/11/07 07:19:24;;;;;;;2.60;1.80;;;11.60;59.00;;;;;;5092596;28;20190;-66
2022/11/07 07:21:52;;;;;;;3.35;1.80;;;11.70;59.00;;;;;;5093179;28;20189;-66
2022/11/07 07:24:19;;;;;;;2.97;1.65;;;11.70;58.80;;;;;;5092448;28;20200;-67
2022/11/07 07:26:46;;;;;;;4.35;1.67;;;11.80;58.70;;;;;;5092149;28;20283;-66
2022/11/07 07:29:15;;;;;;;6.68;3.50;;;11.90;58.60;;;;;;5093198;28;20201;-70
2022/11/07 07:31:42;;;;;;;4.55;2.08;;;12.00;58.80;;;;;;5092912;28;20181;-66
2022/11/07 07:34:09;;;;;;;3.72;1.92;;;12.30;59.20;;;;;;5093055;28;20230;-67
2022/11/07 07:36:36;;;;;;;2.80;1.37;;;12.70;58.20;;;;;;5092818;28;20178;-67
2022/11/07 07:39:03;;;;;;;5.07;1.77;;;13.10;56.50;;;;;;5092950;28;20468;-67
2022/11/07 07:41:30;;;;;;;3.97;1.40;;;13.40;56.40;;;;;;5091813;28;20439;-67
2022/11/07 07:43:57;;;;;;;3.10;1.50;;;13.60;54.60;;;;;;5093003;28;20826;-67
2022/11/07 07:46:26;;;;;;;2.93;1.43;;;14.00;54.40;;;;;;5092172;28;20477;-67
2022/11/07 07:48:53;;;;;;;2.23;1.03;;;14.50;53.10;;;;;;5092347;28;20446;-66
2022/11/07 07:51:20;;;;;;;2.40;1.30;;;14.90;52.20;;;;;;5092853;28;20485;-66
2022/11/07 07:53:47;;;;;;;3.60;1.40;;;15.30;51.80;;;;;;5092364;28;20956;-66
2022/11/07 07:56:16;;;;;;;2.37;1.20;;;15.90;50.60;;;;;;5092280;28;20769;-67
2022/11/07 07:58:43;;;;;;;2.30;1.30;;;16.10;47.40;;;;;;5092498;28;20435;-69
2022/11/07 08:01:10;;;;;;;2.60;0.90;;;16.30;47.70;;;;;;5092787;28;20430;-67
2022/11/07 08:03:39;;;;;;;2.00;0.90;;;16.60;47.60;;;;;;5092759;28;20760;-68
2022/11/07 08:06:06;;;;;;;4.20;1.50;;;17.00;46.20;;;;;;5092645;28;20477;-69
2022/11/07 08:08:34;;;;;;;2.93;0.90;;;17.10;45.10;;;;;;5092258;28;20523;-67
2022/11/07 08:11:02;;;;;;;2.73;1.20;;;17.40;44.50;;;;;;5092785;28;20435;-67
2022/11/07 08:13:29;;;;;;;2.10;0.97;;;17.60;45.40;;;;;;5092247;28;20508;-67
2022/11/07 08:15:57;;;;;;;2.60;1.60;;;18.10;43.50;;;;;;5092692;28;20522;-67
2022/11/07 08:18:24;;;;;;;2.40;1.17;;;18.40;42.60;;;;;;5091894;28;20427;-68
2022/11/07 08:20:55;;;;;;;2.53;1.30;;;18.60;42.90;;;;;;5092883;28;20446;-67
2022/11/07 08:23:23;;;;;;;2.10;1.00;;;18.80;41.10;;;;;;5092302;28;20438;-67
2022/11/07 08:25:51;;;;;;;2.33;1.13;;;19.00;42.50;;;;;;5092145;28;20474;-70
2022/11/07 08:28:19;;;;;;;3.40;1.10;;;19.00;41.70;;;;;;5091884;28;20470;-67
2022/11/07 08:30:54;;;;;;;2.00;0.90;;;19.20;41.10;;;;;;5092485;28;20439;-64
2022/11/07 08:33:21;;;;;;;3.73;2.10;;;19.40;40.90;;;;;;5090616;28;20430;-65
2022/11/07 08:35:48;;;;;;;2.90;1.40;;;19.30;39.40;;;;;;5092419;28;20466;-64
2022/11/07 08:38:17;;;;;;;2.67;1.30;;;19.20;39.00;;;;;;5093990;28;20485;-64
2022/11/07 08:40:44;;;;;;;3.30;1.43;;;19.10;39.20;;;;;;5096406;28;20971;-68
2022/11/07 08:43:11;;;;;;;2.57;1.30;;;19.70;40.00;;;;;;5092491;28;20770;-65
2022/11/07 08:45:38;;;;;;;2.40;1.00;;;20.50;40.00;;;;;;5092062;28;20471;-67
2022/11/07 08:48:06;;;;;;;2.33;0.90;;;21.00;37.00;;;;;;5095233;28;20442;-68
2022/11/07 08:50:33;;;;;;;2.00;0.73;;;21.50;37.00;;;;;;5096270;28;20643;-68
2022/11/07 08:53:01;;;;;;;3.00;1.57;;;22.10;36.00;;;;;;5093500;28;20533;-66
2022/11/07 08:55:30;;;;;;;2.30;1.00;;;22.70;35.70;;;;;;5095741;28;20438;-69
2022/11/07 08:57:59;;;;;;;1.90;0.83;;;23.10;34.50;;;;;;5093754;28;20431;-66
2022/11/07 09:00:26;;;;;;;2.87;1.10;;;23.60;34.20;;;;;;5095824;28;20430;-66
2022/11/07 09:02:53;;;;;;;2.20;0.90;;;24.20;32.00;;;;;;5095448;28;20532;-67
2022/11/07 09:05:20;;;;;;;2.50;1.00;;;24.80;31.50;;;;;;5094762;28;20496;-66
2022/11/07 09:07:47;;;;;;;3.00;0.90;;;25.00;30.00;;;;;;5094092;28;20477;-66
2022/11/07 09:10:14;;;;;;;6.67;2.40;;;25.20;30.10;;;;;;5094877;28;20439;-66
2022/11/07 09:12:47;;;;;;;3.47;2.00;;;25.50;29.70;;;;;;5095070;28;20441;-68
2022/11/07 09:15:14;;;;;;;2.20;1.37;;;26.00;29.10;;;;;;5094690;28;20450;-66
2022/11/07 09:17:42;;;;;;;2.63;1.07;;;26.50;27.60;;;;;;5094666;28;20444;-66
2022/11/07 09:20:10;;;;;;;4.23;0.80;;;26.70;28.50;;;;;;5095380;28;20434;-67
2022/11/07 09:22:37;;;;;;;2.73;1.10;;;27.10;26.70;;;;;;5094429;28;20442;-66
2022/11/07 09:25:05;;;;;;;2.50;1.13;;;27.20;26.60;;;;;;5094893;28;20435;-68
2022/11/07 09:27:33;;;;;;;2.30;1.03;;;27.80;26.60;;;;;;5094114;28;20498;-67
2022/11/07 09:30:01;;;;;;;3.13;1.30;;;28.30;25.90;;;;;;5094413;28;20435;-66
2022/11/07 09:32:29;;;;;;;2.50;0.90;;;28.60;25.90;;;;;;5094747;28;20443;-67
2022/11/07 09:34:56;;;;;;;4.10;1.40;;;29.10;25.10;;;;;;5094408;28;20439;-66
2022/11/07 09:37:23;;;;;;;2.57;1.17;;;28.70;24.90;;;;;;5094018;28;20427;-66
2022/11/07 09:39:50;;;;;;;2.17;1.20;;;28.60;25.00;;;;;;5093973;28;20447;-67
2022/11/07 09:42:27;;;;;;;2.53;1.27;;;28.90;25.10;;;;;;5093421;28;20443;-67
2022/11/07 09:44:56;;;;;;;3.77;1.03;;;29.50;23.80;;;;;;5094045;28;20423;-67
2022/11/07 09:47:32;;;;;;;2.70;1.17;;;30.40;23.80;;;;;;5094168;28;20490;-67
2022/11/07 09:50:04;;;;;;;2.40;0.90;;;31.40;24.10;;;;;;5093018;28;20480;-70
2022/11/07 09:52:39;;;;;;;3.00;1.37;;;32.00;21.80;;;;;;5093537;28;20439;-67
2022/11/07 09:55:14;;;;;;;2.63;1.03;;;32.50;22.00;;;;;;5093653;28;20442;-67
2022/11/07 09:57:42;;;;;;;1.90;0.80;;;32.50;21.00;;;;;;5093457;28;20434;-67
2022/11/07 10:00:15;;;;;;;2.47;1.00;;;31.00;21.10;;;;;;5093446;28;20436;-67
2022/11/07 10:02:46;;;;;;;7.30;1.20;;;29.30;22.40;;;;;;5093881;28;20439;-68
2022/11/07 10:05:16;;;;;;;2.33;1.07;;;28.30;23.60;;;;;;5093144;28;20492;-67
2022/11/07 10:07:55;;;;;;;5.13;2.83;;;27.80;24.60;;;;;;5093362;28;20442;-67
2022/11/07 10:10:33;;;;;;;6.00;4.57;;;27.40;24.80;;;;;;5093243;28;20431;-67
2022/11/07 10:13:27;;;;;;;3.33;2.47;;;27.30;24.70;;;;;;5093748;28;20435;-67
2022/11/07 10:16:06;;;;;;;3.50;2.00;;;28.10;25.10;;;;;;5093762;28;20458;-66
2022/11/07 10:18:52;;;;;;;3.47;2.23;;;29.80;25.10;;;;;;5093135;28;20525;-67
2022/11/07 10:21:27;;;;;;;2.20;1.10;;;31.20;23.00;;;;;;5092783;28;20458;-67
2022/11/07 10:24:07;;;;;;;3.33;1.37;;;31.60;22.80;;;;;;5093181;28;20434;-67
2022/11/07 10:26:35;;;;;;;3.00;1.00;;;30.70;22.30;;;;;;5092380;28;20519;-67
2022/11/07 10:29:12;;;;;;;2.20;0.97;;;29.40;23.30;;;;;;5092968;28;20447;-67
2022/11/07 10:31:41;;;;;;;2.60;1.60;;;28.40;23.70;;;;;;5092825;28;20445;-66
2022/11/07 10:34:19;;;;;;;3.80;1.27;;;27.50;24.60;;;;;;5092970;28;20462;-67
2022/11/07 10:36:46;;;;;;;2.00;1.00;;;27.30;25.40;;;;;;5093130;28;20433;-67
2022/11/07 10:39:16;;;;;;;1.90;0.80;;;28.00;25.70;;;;;;5092380;28;20434;-67
2022/11/07 10:41:50;;;;;;;3.60;1.00;;;28.40;24.60;;;;;;5085448;28;20435;-67
2022/11/07 10:44:23;;;;;;;3.70;1.03;;;28.60;24.10;;;;;;5092603;28;20427;-67
2022/11/07 10:46:51;;;;;;;3.00;1.30;;;28.50;24.60;;;;;;5092986;28;20479;-67
2022/11/07 10:49:21;;;;;;;4.70;1.27;;;28.50;25.40;;;;;;5092428;28;20488;-67
2022/11/07 10:51:49;;;;;;;4.17;1.80;;;28.50;24.70;;;;;;5091946;28;20439;-66
2022/11/07 10:54:21;;;;;;;4.07;1.57;;;28.20;24.90;;;;;;5092531;28;20947;-70
2022/11/07 10:56:54;;;;;;;4.20;2.90;;;28.40;25.00;;;;;;5072299;28;20472;-67
2022/11/07 10:59:25;;;;;;;2.20;1.20;;;29.20;25.40;;;;;;5072421;28;20452;-67
2022/11/07 11:01:55;;;;;;;2.33;0.93;;;29.90;24.40;;;;;;5089743;28;20435;-67
2022/11/07 11:04:24;;;;;;;2.93;0.90;;;30.20;24.20;;;;;;5090847;28;20442;-74
2022/11/07 11:07:00;;;;;;;2.40;1.13;;;30.20;23.10;;;;;;5090375;28;20832;-68
2022/11/07 11:09:32;;;;;;;3.10;1.07;;;29.70;22.70;;;;;;5090744;28;20476;-69
2022/11/07 11:12:05;;;;;;;3.67;2.43;;;28.90;23.60;;;;;;5089643;28;20435;-68
2022/11/07 11:14:32;;;;;;;2.10;1.20;;;28.50;24.30;;;;;;5089135;28;20434;-70
2022/11/07 11:16:59;;;;;;;2.97;1.30;;;28.20;24.90;;;;;;5090561;28;20504;-67
2022/11/07 11:19:33;;;;;;;2.00;0.70;;;28.00;25.00;;;;;;5088783;28;20435;-68
2022/11/07 11:22:01;;;;;;;2.67;1.00;;;28.10;25.20;;;;;;5086742;28;20426;-67
2022/11/07 11:24:36;;;;;;;1.90;0.90;;;27.90;25.10;;;;;;5090340;28;20941;-67
2022/11/07 11:27:12;;;;;;;1.87;0.80;;;27.40;25.40;;;;;;5089852;28;20486;-67
2022/11/07 11:29:49;;;;;;;2.27;1.03;;;26.90;26.20;;;;;;5090302;28;20492;-67
2022/11/07 11:32:24;;;;;;;2.60;1.20;;;26.60;26.00;;;;;;5090807;28;20431;-66
2022/11/07 11:35:00;;;;;;;4.80;1.20;;;26.50;26.10;;;;;;5090874;28;20820;-66
2022/11/07 11:37:27;;;;;;;4.53;1.93;;;26.40;26.20;;;;;;5090477;28;20431;-68
2022/11/07 11:40:14;;;;;;;2.73;1.47;;;26.20;26.40;;;;;;5089426;28;20789;-67
2022/11/07 11:42:49;;;;;;;2.43;1.00;;;26.00;26.20;;;;;;5085515;28;20427;-66
2022/11/07 11:45:19;;;;;;;4.90;1.00;;;25.60;26.50;;;;;;5090406;28;20453;-66
2022/11/07 11:47:55;;;;;;;2.33;1.00;;;25.00;26.80;;;;;;5089762;28;20484;-67
2022/11/07 11:50:31;;;;;;;2.20;0.70;;;24.40;27.70;;;;;;5090569;28;20454;-66
2022/11/07 11:52:59;;;;;;;2.30;1.00;;;23.90;28.40;;;;;;5089380;28;20488;-67
2022/11/07 11:55:38;;;;;;;3.67;2.10;;;23.60;29.00;;;;;;5090615;28;20427;-66
2022/11/07 11:58:14;;;;;;;2.73;1.27;;;23.30;29.20;;;;;;5088693;28;20496;-68
2022/11/07 12:00:53;;;;;;;2.33;1.03;;;23.10;29.70;;;;;;5087319;28;20484;-66
2022/11/07 12:03:39;;;;;;;2.00;0.90;;;23.00;30.50;;;;;;5089094;28;20439;-67
2022/11/07 12:06:15;;;;;;;2.90;0.70;;;23.20;30.60;;;;;;5090148;28;20573;-66
2022/11/07 12:09:21;;;;;;;2.20;0.90;;;23.60;30.00;;;;;;5089815;28;20438;-67
2022/11/07 12:12:03;;;;;;;2.47;1.10;;;24.00;29.50;;;;;;5064957;28;20459;-66
2022/11/07 12:14:56;;;;;;;3.07;0.90;;;24.60;29.40;;;;;;5068253;28;20929;-67
2022/11/07 12:17:29;;;;;;;4.93;1.30;;;25.10;28.70;;;;;;5085200;28;20463;-66
2022/11/07 12:20:02;;;;;;;3.50;1.63;;;25.70;28.50;;;;;;5094037;28;20522;-66
2022/11/07 12:22:44;;;;;;;2.37;0.80;;;26.40;27.80;;;;;;5090570;28;20816;-67
2022/11/07 12:25:21;;;;;;;2.10;0.80;;;27.30;27.30;;;;;;5092760;28;20430;-69
2022/11/07 12:27:59;;;;;;;2.30;1.00;;;28.50;25.40;;;;;;5093020;28;20944;-66
2022/11/07 12:30:37;;;;;;;2.90;0.93;;;29.20;23.80;;;;;;5093513;28;20909;-66
2022/11/07 12:33:17;;;;;;;2.00;0.80;;;29.10;23.70;;;;;;5093518;28;20438;-66
2022/11/07 12:35:50;;;;;;;2.87;1.40;;;28.30;23.90;;;;;;5093670;28;20484;-67
2022/11/07 12:38:56;;;;;;;4.03;1.30;;;28.20;24.40;;;;;;5093317;28;20439;-67
2022/11/07 12:41:34;;;;;;;2.53;0.90;;;28.00;24.00;;;;;;5093062;28;20427;-67
2022/11/07 12:44:12;;;;;;;2.07;0.70;;;27.30;24.40;;;;;;5093820;28;20789;-66
2022/11/07 12:46:48;;;;;;;2.60;0.90;;;26.50;24.90;;;;;;5093153;28;20474;-66
2022/11/07 12:49:55;;;;;;;3.97;0.90;;;25.70;25.80;;;;;;5093481;28;20780;-66
2022/11/07 12:52:50;;;;;;;3.60;0.70;;;24.90;26.80;;;;;;5069647;28;20988;-66
2022/11/07 12:55:22;;;;;;;2.03;0.80;;;24.40;27.60;;;;;;5064946;28;20443;-66
2022/11/07 12:57:54;;;;;;;2.20;0.77;;;24.00;28.60;;;;;;5086884;28;20443;-66
2022/11/07 13:00:24;;;;;;;3.73;1.03;;;23.80;28.90;;;;;;5092430;28;20435;-67
2022/11/07 13:03:11;;;;;;;2.17;0.80;;;23.60;29.20;;;;;;5088991;28;20434;-66
2022/11/07 13:05:56;;;;;;;2.93;0.90;;;23.30;30.00;;;;;;5092173;28;20434;-66
2022/11/07 13:08:30;;;;;;;2.17;0.87;;;22.80;29.50;;;;;;5092569;28;20551;-67
2022/11/07 13:11:04;;;;;;;2.80;1.10;;;22.30;30.20;;;;;;5092637;28;20442;-66
2022/11/07 13:13:46;;;;;;;3.07;0.90;;;21.90;31.00;;;;;;5093017;28;20423;-67